Time;durP1;ratioP1;P1;durP2;ratioP2;P2;SDS_P1;SDS_P2;PMS_P1;PMS_P2;Temp;Humidity;BMP_temperature;BMP_pressure;BME280_temperature;BME280_humidity;BME280_pressure;Samples;Min_cycle;Max_cycle;Signal;HPM_P1;HPM_P2
2022/11/27 00:01:12;;;;;;;;;;;22.80;38.60;;;;;;484198;246;1716;-44
2022/11/27 00:03:13;;;;;;;;;;;22.80;38.50;;;;;;484229;246;1636;-45
2022/11/27 00:05:15;;;;;;;;;;;22.80;38.50;;;;;;484270;246;1266;-45
2022/11/27 00:07:16;;;;;;;;;;;22.80;38.50;;;;;;484385;246;1202;-45
2022/11/27 00:09:17;;;;;;;;;;;22.90;38.50;;;;;;484313;246;1324;-45
2022/11/27 00:11:19;;;;;;;;;;;22.90;38.40;;;;;;484152;246;1366;-45
2022/11/27 00:13:20;;;;;;;;;;;22.90;38.40;;;;;;484146;246;2136;-45
2022/11/27 00:15:21;;;;;;;;;;;22.90;38.40;;;;;;484471;246;1339;-45
2022/11/27 00:17:23;;;;;;;;;;;22.90;38.40;;;;;;484311;246;1224;-44
2022/11/27 00:19:24;;;;;;;;;;;22.90;38.40;;;;;;484369;246;1305;-44
2022/11/27 00:21:25;;;;;;;;;;;22.90;38.30;;;;;;484589;246;1396;-45
2022/11/27 00:23:26;;;;;;;;;;;22.90;38.30;;;;;;484156;246;1284;-45
2022/11/27 00:25:28;;;;;;;;;;;23.00;38.30;;;;;;484147;246;1204;-45
2022/11/27 00:27:29;;;;;;;;;;;23.00;38.30;;;;;;484326;246;1342;-44
2022/11/27 00:29:30;;;;;;;;;;;23.00;38.30;;;;;;483975;246;1316;-44
2022/11/27 00:31:32;;;;;;;;;;;23.00;38.20;;;;;;484286;246;1421;-45
2022/11/27 00:33:33;;;;;;;;;;;23.00;38.20;;;;;;484113;246;2188;-45
2022/11/27 00:35:34;;;;;;;;;;;23.00;38.20;;;;;;484148;246;1195;-45
2022/11/27 00:37:36;;;;;;;;;;;23.00;38.10;;;;;;484128;243;1709;-45
2022/11/27 00:39:37;;;;;;;;;;;23.00;38.10;;;;;;484171;246;1252;-44
2022/11/27 00:41:38;;;;;;;;;;;23.00;38.20;;;;;;484136;246;1420;-45
2022/11/27 00:43:40;;;;;;;;;;;23.10;38.20;;;;;;484089;246;1750;-45
2022/11/27 00:45:41;;;;;;;;;;;23.10;38.20;;;;;;484301;246;1284;-45
2022/11/27 00:47:42;;;;;;;;;;;23.10;38.10;;;;;;484223;246;1236;-44
2022/11/27 00:49:45;;;;;;;;;;;23.10;38.10;;;;;;484610;246;1247;-44
2022/11/27 00:51:45;;;;;;;;;;;23.10;38.20;;;;;;484524;246;1990;-45
2022/11/27 00:53:46;;;;;;;;;;;23.10;38.10;;;;;;484116;246;2207;-45
2022/11/27 00:55:48;;;;;;;;;;;23.10;38.10;;;;;;484206;246;1303;-44
2022/11/27 00:57:49;;;;;;;;;;;23.10;38.10;;;;;;484622;246;1220;-45
2022/11/27 00:59:50;;;;;;;;;;;23.10;38.00;;;;;;484152;246;1381;-45
2022/11/27 01:01:52;;;;;;;;;;;23.20;38.10;;;;;;484419;246;1386;-45
2022/11/27 01:03:53;;;;;;;;;;;23.20;38.10;;;;;;484183;246;1241;-44
2022/11/27 01:05:54;;;;;;;;;;;23.20;38.10;;;;;;484211;246;1346;-44
2022/11/27 01:07:55;;;;;;;;;;;23.20;38.00;;;;;;484017;246;1292;-45
2022/11/27 01:09:57;;;;;;;;;;;23.20;38.00;;;;;;484265;246;1249;-45
2022/11/27 01:11:58;;;;;;;;;;;23.20;38.00;;;;;;484200;246;1263;-45
2022/11/27 01:13:59;;;;;;;;;;;23.20;38.00;;;;;;484108;246;2152;-45
2022/11/27 01:16:01;;;;;;;;;;;23.20;38.00;;;;;;484121;246;1264;-45
2022/11/27 01:18:02;;;;;;;;;;;23.20;37.90;;;;;;484563;246;1303;-45
2022/11/27 01:20:03;;;;;;;;;;;23.20;38.00;;;;;;484097;246;1202;-44
2022/11/27 01:22:05;;;;;;;;;;;23.20;38.00;;;;;;484350;246;1265;-44
2022/11/27 01:24:06;;;;;;;;;;;23.20;38.00;;;;;;484156;246;1253;-44
2022/11/27 01:26:07;;;;;;;;;;;23.30;38.00;;;;;;484598;246;1258;-44
2022/11/27 01:28:09;;;;;;;;;;;23.20;37.90;;;;;;484158;246;1247;-44
2022/11/27 01:30:10;;;;;;;;;;;23.10;38.10;;;;;;484194;246;1238;-45
2022/11/27 01:32:11;;;;;;;;;;;23.10;38.20;;;;;;484592;246;1279;-44
2022/11/27 01:34:13;;;;;;;;;;;22.90;38.50;;;;;;484155;246;2201;-45
2022/11/27 01:36:14;;;;;;;;;;;22.80;38.90;;;;;;484048;246;1239;-44
2022/11/27 01:38:15;;;;;;;;;;;22.60;39.10;;;;;;484321;246;1344;-44
2022/11/27 01:40:17;;;;;;;;;;;22.50;39.30;;;;;;484247;246;1252;-44
2022/11/27 01:42:18;;;;;;;;;;;22.30;39.40;;;;;;484623;246;1262;-44
2022/11/27 01:44:19;;;;;;;;;;;22.20;39.70;;;;;;484591;246;1272;-45
2022/11/27 01:46:21;;;;;;;;;;;22.20;39.90;;;;;;484628;246;1382;-44
2022/11/27 01:48:22;;;;;;;;;;;22.10;39.90;;;;;;484616;246;1676;-44
2022/11/27 01:50:23;;;;;;;;;;;22.10;40.10;;;;;;484614;246;1406;-44
2022/11/27 01:52:25;;;;;;;;;;;22.00;40.20;;;;;;484208;246;1545;-45
2022/11/27 01:54:26;;;;;;;;;;;22.00;40.40;;;;;;484189;246;2188;-44
2022/11/27 01:56:27;;;;;;;;;;;21.90;40.40;;;;;;484129;246;1222;-44
2022/11/27 01:58:29;;;;;;;;;;;21.90;40.50;;;;;;484610;246;1382;-44
2022/11/27 02:00:30;;;;;;;;;;;21.90;40.50;;;;;;484156;246;1262;-44
2022/11/27 02:02:31;;;;;;;;;;;21.90;40.50;;;;;;484431;246;1258;-44
2022/11/27 02:04:33;;;;;;;;;;;21.80;40.50;;;;;;484427;246;1270;-44
2022/11/27 02:06:34;;;;;;;;;;;21.80;40.60;;;;;;484516;246;1442;-44
2022/11/27 02:08:36;;;;;;;;;;;21.80;40.60;;;;;;484223;246;1215;-44
2022/11/27 02:10:37;;;;;;;;;;;21.80;40.70;;;;;;484182;246;1560;-45
2022/11/27 02:12:38;;;;;;;;;;;21.80;40.70;;;;;;484111;246;1297;-44
2022/11/27 02:14:39;;;;;;;;;;;21.80;40.70;;;;;;484260;246;2147;-44
2022/11/27 02:16:42;;;;;;;;;;;21.80;40.70;;;;;;484121;246;1427;-44
2022/11/27 02:18:42;;;;;;;;;;;21.70;40.80;;;;;;484096;246;1400;-45
2022/11/27 02:20:43;;;;;;;;;;;21.70;40.90;;;;;;484174;246;1374;-44
2022/11/27 02:22:45;;;;;;;;;;;21.70;40.80;;;;;;484210;246;1248;-44
2022/11/27 02:24:46;;;;;;;;;;;21.70;40.90;;;;;;484080;246;1439;-45
2022/11/27 02:26:47;;;;;;;;;;;21.60;40.90;;;;;;484241;246;1676;-44
2022/11/27 02:28:49;;;;;;;;;;;21.60;41.00;;;;;;484524;246;1276;-44
2022/11/27 02:30:50;;;;;;;;;;;21.60;41.00;;;;;;484365;246;1207;-45
2022/11/27 02:32:51;;;;;;;;;;;21.50;41.10;;;;;;484409;246;1291;-44
2022/11/27 02:34:53;;;;;;;;;;;21.60;41.00;;;;;;484573;246;2144;-44
2022/11/27 02:36:54;;;;;;;;;;;21.60;41.10;;;;;;484285;246;1640;-44
2022/11/27 02:38:55;;;;;;;;;;;21.50;41.10;;;;;;484310;246;1323;-44
2022/11/27 02:40:57;;;;;;;;;;;21.60;41.10;;;;;;484295;246;1214;-44
2022/11/27 02:42:58;;;;;;;;;;;21.50;41.00;;;;;;484130;246;1247;-45
2022/11/27 02:44:59;;;;;;;;;;;21.50;41.10;;;;;;484044;246;1214;-44
2022/11/27 02:47:01;;;;;;;;;;;21.50;41.10;;;;;;484207;246;1348;-44
2022/11/27 02:49:02;;;;;;;;;;;21.50;41.00;;;;;;484116;246;1274;-44
2022/11/27 02:51:03;;;;;;;;;;;21.50;41.00;;;;;;484563;246;1616;-44
2022/11/27 02:53:05;;;;;;;;;;;21.50;41.00;;;;;;484579;246;1254;-44
2022/11/27 02:55:06;;;;;;;;;;;21.50;41.00;;;;;;484216;246;2148;-44
2022/11/27 02:57:07;;;;;;;;;;;21.50;41.10;;;;;;484315;246;1320;-44
2022/11/27 02:59:09;;;;;;;;;;;21.50;41.10;;;;;;484106;246;1369;-44
2022/11/27 03:01:10;;;;;;;;;;;21.50;41.10;;;;;;484447;246;1373;-44
2022/11/27 03:03:11;;;;;;;;;;;21.40;41.10;;;;;;484161;246;1200;-44
2022/11/27 03:05:13;;;;;;;;;;;21.40;41.20;;;;;;484264;246;1547;-44
2022/11/27 03:07:14;;;;;;;;;;;21.40;41.20;;;;;;484146;246;1203;-44
2022/11/27 03:09:15;;;;;;;;;;;21.40;41.20;;;;;;484277;246;1228;-45
2022/11/27 03:11:17;;;;;;;;;;;21.40;41.10;;;;;;484322;246;1263;-44
2022/11/27 03:13:18;;;;;;;;;;;21.40;41.10;;;;;;484628;246;1188;-44
2022/11/27 03:15:19;;;;;;;;;;;21.40;41.10;;;;;;484160;246;2184;-44
2022/11/27 03:17:20;;;;;;;;;;;21.40;41.20;;;;;;484204;246;1287;-44
2022/11/27 03:19:22;;;;;;;;;;;21.40;41.20;;;;;;484105;246;1311;-44
2022/11/27 03:21:23;;;;;;;;;;;21.40;41.20;;;;;;484650;246;1215;-44
2022/11/27 03:23:24;;;;;;;;;;;21.40;41.20;;;;;;484416;246;1672;-44
2022/11/27 03:25:26;;;;;;;;;;;21.40;41.20;;;;;;484554;246;1309;-44
2022/11/27 03:27:27;;;;;;;;;;;21.40;41.30;;;;;;484593;246;1288;-44
2022/11/27 03:29:28;;;;;;;;;;;21.40;41.30;;;;;;484374;246;1699;-44
2022/11/27 03:31:30;;;;;;;;;;;21.40;41.30;;;;;;484523;246;1777;-44
2022/11/27 03:33:31;;;;;;;;;;;21.40;41.20;;;;;;484169;246;1775;-45
2022/11/27 03:35:32;;;;;;;;;;;21.30;41.20;;;;;;484210;246;2192;-44
2022/11/27 03:37:34;;;;;;;;;;;21.40;41.20;;;;;;484575;246;1857;-45
2022/11/27 03:39:35;;;;;;;;;;;21.40;41.20;;;;;;484149;246;1373;-44
2022/11/27 03:41:36;;;;;;;;;;;21.40;41.20;;;;;;484215;246;1217;-44
2022/11/27 03:43:38;;;;;;;;;;;21.40;41.20;;;;;;484582;246;1684;-44
2022/11/27 03:45:39;;;;;;;;;;;21.40;41.20;;;;;;484401;246;1287;-44
2022/11/27 03:47:40;;;;;;;;;;;21.40;41.20;;;;;;484301;246;1469;-44
2022/11/27 03:49:42;;;;;;;;;;;21.40;41.20;;;;;;484120;246;1295;-44
2022/11/27 03:51:43;;;;;;;;;;;21.30;41.20;;;;;;484590;246;1608;-44
2022/11/27 03:53:44;;;;;;;;;;;21.30;41.30;;;;;;484658;246;1329;-44
2022/11/27 03:55:46;;;;;;;;;;;21.30;41.20;;;;;;484166;242;2156;-45
2022/11/27 03:57:47;;;;;;;;;;;21.30;41.20;;;;;;484604;246;1257;-44
2022/11/27 03:59:48;;;;;;;;;;;21.40;41.30;;;;;;484336;246;1307;-44
2022/11/27 04:01:50;;;;;;;;;;;21.30;41.20;;;;;;484618;246;1345;-44
2022/11/27 04:03:51;;;;;;;;;;;21.30;41.30;;;;;;484456;246;1237;-44
2022/11/27 04:05:52;;;;;;;;;;;21.30;41.20;;;;;;484182;246;1267;-44
2022/11/27 04:07:54;;;;;;;;;;;21.30;41.20;;;;;;484434;246;1329;-44
2022/11/27 04:09:55;;;;;;;;;;;21.30;41.20;;;;;;484454;246;1457;-44
2022/11/27 04:11:56;;;;;;;;;;;21.30;41.30;;;;;;484143;246;1240;-44
2022/11/27 04:13:58;;;;;;;;;;;21.30;41.40;;;;;;484360;246;1253;-44
2022/11/27 04:15:59;;;;;;;;;;;21.30;41.20;;;;;;484558;246;2109;-44
2022/11/27 04:18:00;;;;;;;;;;;21.30;41.30;;;;;;484159;246;1252;-45
2022/11/27 04:20:02;;;;;;;;;;;21.30;41.20;;;;;;484406;246;1399;-44
2022/11/27 04:22:03;;;;;;;;;;;21.30;41.30;;;;;;484401;246;1346;-44
2022/11/27 04:24:04;;;;;;;;;;;21.30;41.30;;;;;;484209;246;1387;-44
2022/11/27 04:26:05;;;;;;;;;;;21.30;41.20;;;;;;484101;246;1402;-44
2022/11/27 04:28:07;;;;;;;;;;;21.30;41.20;;;;;;484271;246;1334;-44
2022/11/27 04:30:08;;;;;;;;;;;21.30;41.20;;;;;;484554;246;1259;-44
2022/11/27 04:32:09;;;;;;;;;;;21.30;41.20;;;;;;484253;246;1201;-44
2022/11/27 04:34:11;;;;;;;;;;;21.30;41.20;;;;;;484228;246;1356;-44
2022/11/27 04:36:15;;;;;;;;;;;21.30;41.30;;;;;;484170;246;1313;-44
2022/11/27 04:38:16;;;;;;;;;;;21.30;41.30;;;;;;484176;246;1325;-44
2022/11/27 04:40:17;;;;;;;;;;;21.20;41.30;;;;;;484114;246;1295;-45
2022/11/27 04:42:18;;;;;;;;;;;21.20;41.30;;;;;;484153;246;1288;-44
2022/11/27 04:44:21;;;;;;;;;;;21.20;41.30;;;;;;484473;246;1348;-44
2022/11/27 04:46:21;;;;;;;;;;;21.30;41.30;;;;;;484472;246;1771;-44
2022/11/27 04:48:23;;;;;;;;;;;21.30;41.30;;;;;;484672;242;1301;-45
2022/11/27 04:50:24;;;;;;;;;;;21.20;41.20;;;;;;484660;246;1226;-44
2022/11/27 04:52:25;;;;;;;;;;;21.30;41.20;;;;;;484214;246;1705;-44
2022/11/27 04:54:27;;;;;;;;;;;21.30;41.20;;;;;;484213;246;2192;-45
2022/11/27 04:56:28;;;;;;;;;;;21.20;41.20;;;;;;484634;246;1158;-44
2022/11/27 04:58:29;;;;;;;;;;;21.20;41.20;;;;;;484397;246;1236;-44
2022/11/27 05:00:30;;;;;;;;;;;21.20;41.20;;;;;;484602;246;1996;-44
2022/11/27 05:02:32;;;;;;;;;;;21.20;41.20;;;;;;484196;246;1292;-44
2022/11/27 05:04:33;;;;;;;;;;;21.20;41.30;;;;;;484199;246;1243;-44
2022/11/27 05:06:34;;;;;;;;;;;21.30;41.20;;;;;;484448;246;1295;-44
2022/11/27 05:08:36;;;;;;;;;;;21.30;41.10;;;;;;484157;246;1249;-44
2022/11/27 05:10:37;;;;;;;;;;;21.30;41.10;;;;;;484167;246;1490;-44
2022/11/27 05:12:38;;;;;;;;;;;21.40;41.00;;;;;;484336;246;1242;-44
2022/11/27 05:14:40;;;;;;;;;;;21.50;40.70;;;;;;484132;246;2156;-45
2022/11/27 05:16:41;;;;;;;;;;;21.70;40.30;;;;;;484100;246;1325;-45
2022/11/27 05:18:42;;;;;;;;;;;21.90;40.10;;;;;;484301;246;1587;-44
2022/11/27 05:20:44;;;;;;;;;;;22.00;39.80;;;;;;484176;246;1253;-44
2022/11/27 05:22:47;;;;;;;;;;;22.10;39.60;;;;;;484641;246;1366;-45
2022/11/27 05:24:46;;;;;;;;;;;22.20;39.50;;;;;;484381;242;2008;-44
2022/11/27 05:26:48;;;;;;;;;;;22.30;39.30;;;;;;484606;242;1209;-45
2022/11/27 05:28:49;;;;;;;;;;;22.30;39.20;;;;;;484209;246;1309;-44
2022/11/27 05:30:50;;;;;;;;;;;22.30;39.10;;;;;;484218;246;1355;-45
2022/11/27 05:32:52;;;;;;;;;;;22.40;39.00;;;;;;484182;246;1354;-45
2022/11/27 05:34:53;;;;;;;;;;;22.40;38.90;;;;;;484136;246;2199;-45
2022/11/27 05:36:54;;;;;;;;;;;22.50;38.90;;;;;;484647;246;1443;-45
2022/11/27 05:38:56;;;;;;;;;;;22.50;38.80;;;;;;484468;246;1244;-45
2022/11/27 05:40:57;;;;;;;;;;;22.60;38.80;;;;;;484318;246;1587;-44
2022/11/27 05:42:58;;;;;;;;;;;22.60;38.70;;;;;;484289;246;1692;-44
2022/11/27 05:45:00;;;;;;;;;;;22.60;38.70;;;;;;484329;246;1549;-44
2022/11/27 05:47:01;;;;;;;;;;;22.70;38.60;;;;;;484145;246;1515;-44
2022/11/27 05:49:02;;;;;;;;;;;22.70;38.60;;;;;;484214;246;1270;-44
2022/11/27 05:51:03;;;;;;;;;;;22.70;38.50;;;;;;484129;246;1677;-45
2022/11/27 05:53:05;;;;;;;;;;;22.70;38.50;;;;;;484137;246;1414;-45
2022/11/27 05:55:06;;;;;;;;;;;22.70;38.40;;;;;;484449;246;2155;-45
2022/11/27 05:57:08;;;;;;;;;;;22.80;38.40;;;;;;484217;246;1326;-45
2022/11/27 05:59:09;;;;;;;;;;;22.80;38.40;;;;;;484323;246;1279;-44
2022/11/27 06:01:11;;;;;;;;;;;22.80;38.40;;;;;;484288;246;1271;-45
2022/11/27 06:03:12;;;;;;;;;;;22.80;38.30;;;;;;484625;246;1174;-45
2022/11/27 06:05:13;;;;;;;;;;;22.80;38.30;;;;;;484567;246;1446;-45
2022/11/27 06:07:15;;;;;;;;;;;22.80;38.20;;;;;;484178;246;1229;-45
2022/11/27 06:09:16;;;;;;;;;;;22.90;38.20;;;;;;484242;246;1105;-45
2022/11/27 06:11:17;;;;;;;;;;;22.90;38.20;;;;;;484678;246;1107;-44
2022/11/27 06:13:19;;;;;;;;;;;22.90;38.10;;;;;;484419;246;1629;-45
2022/11/27 06:15:20;;;;;;;;;;;22.90;38.10;;;;;;484638;246;2172;-45
2022/11/27 06:17:21;;;;;;;;;;;23.00;38.10;;;;;;484242;246;1173;-45
2022/11/27 06:19:23;;;;;;;;;;;23.00;38.10;;;;;;484244;246;1110;-45
2022/11/27 06:21:24;;;;;;;;;;;23.00;38.00;;;;;;484441;246;1282;-45
2022/11/27 06:23:25;;;;;;;;;;;23.00;38.00;;;;;;484182;246;1265;-45
2022/11/27 06:25:27;;;;;;;;;;;23.00;38.00;;;;;;484624;246;1296;-45
2022/11/27 06:27:28;;;;;;;;;;;23.00;38.00;;;;;;484145;246;1281;-44
2022/11/27 06:29:29;;;;;;;;;;;23.00;38.00;;;;;;484213;246;1281;-45
2022/11/27 06:31:31;;;;;;;;;;;23.00;38.00;;;;;;484127;246;1366;-45
2022/11/27 06:33:32;;;;;;;;;;;23.10;38.00;;;;;;484142;246;1698;-45
2022/11/27 06:35:34;;;;;;;;;;;23.10;38.00;;;;;;484168;246;2156;-45
2022/11/27 06:37:35;;;;;;;;;;;23.10;38.00;;;;;;484523;246;1378;-45
2022/11/27 06:39:36;;;;;;;;;;;23.10;37.90;;;;;;484607;246;1359;-44
2022/11/27 06:41:38;;;;;;;;;;;23.10;37.90;;;;;;484351;246;1686;-45
2022/11/27 06:43:39;;;;;;;;;;;23.10;37.90;;;;;;484147;246;1252;-44
2022/11/27 06:45:40;;;;;;;;;;;23.10;37.90;;;;;;484134;246;1308;-44
2022/11/27 06:47:42;;;;;;;;;;;23.10;37.80;;;;;;484156;246;1413;-45
2022/11/27 06:49:43;;;;;;;;;;;23.10;37.80;;;;;;484606;246;1538;-45
2022/11/27 06:51:44;;;;;;;;;;;23.20;37.90;;;;;;484637;246;1246;-45
2022/11/27 06:53:46;;;;;;;;;;;23.20;37.90;;;;;;484311;246;1230;-45
2022/11/27 06:55:47;;;;;;;;;;;23.20;37.90;;;;;;484163;246;2191;-45
2022/11/27 06:57:48;;;;;;;;;;;23.20;37.80;;;;;;484432;246;1295;-45
2022/11/27 06:59:50;;;;;;;;;;;23.20;37.80;;;;;;484200;246;1436;-45
2022/11/27 07:01:51;;;;;;;;;;;23.20;37.80;;;;;;484166;246;1401;-45
2022/11/27 07:03:52;;;;;;;;;;;23.20;37.70;;;;;;484243;246;1242;-45
2022/11/27 07:05:54;;;;;;;;;;;23.20;37.80;;;;;;484303;246;1323;-45
2022/11/27 07:07:55;;;;;;;;;;;23.10;37.90;;;;;;484428;246;1242;-45
2022/11/27 07:09:56;;;;;;;;;;;23.00;38.00;;;;;;484501;246;1224;-44
2022/11/27 07:11:57;;;;;;;;;;;22.80;38.40;;;;;;484190;246;1377;-45
2022/11/27 07:13:59;;;;;;;;;;;22.60;38.70;;;;;;484217;246;1415;-44
2022/11/27 07:16:01;;;;;;;;;;;22.40;39.10;;;;;;484129;246;2246;-44
2022/11/27 07:18:02;;;;;;;;;;;22.30;39.30;;;;;;484638;246;1241;-44
2022/11/27 07:20:03;;;;;;;;;;;22.20;39.60;;;;;;484400;246;1207;-45
2022/11/27 07:22:05;;;;;;;;;;;22.10;39.80;;;;;;484519;246;1267;-45
2022/11/27 07:24:06;;;;;;;;;;;22.00;40.00;;;;;;484408;246;1262;-45
2022/11/27 07:26:07;;;;;;;;;;;21.90;40.10;;;;;;484613;246;1243;-45
2022/11/27 07:28:08;;;;;;;;;;;21.90;40.10;;;;;;484237;246;1292;-44
2022/11/27 07:30:10;;;;;;;;;;;21.90;40.30;;;;;;484164;246;1272;-44
2022/11/27 07:32:11;;;;;;;;;;;21.80;40.30;;;;;;484214;246;1253;-44
2022/11/27 07:34:12;;;;;;;;;;;21.80;40.50;;;;;;484402;246;1400;-44
2022/11/27 07:36:14;;;;;;;;;;;21.70;40.60;;;;;;484159;246;2204;-44
2022/11/27 07:38:15;;;;;;;;;;;21.70;40.60;;;;;;484589;246;1313;-44
2022/11/27 07:40:18;;;;;;;;;;;21.60;40.70;;;;;;484611;246;1275;-44
2022/11/27 07:42:19;;;;;;;;;;;21.60;40.70;;;;;;484356;246;1462;-45
2022/11/27 07:44:20;;;;;;;;;;;21.60;40.70;;;;;;484193;246;1248;-44
2022/11/27 07:46:21;;;;;;;;;;;21.50;40.80;;;;;;484382;246;1318;-44
2022/11/27 07:48:23;;;;;;;;;;;21.50;40.80;;;;;;484580;246;1242;-45
2022/11/27 07:50:24;;;;;;;;;;;21.40;40.90;;;;;;484428;246;1175;-45
2022/11/27 07:52:25;;;;;;;;;;;21.50;41.00;;;;;;484312;246;1239;-44
2022/11/27 07:54:27;;;;;;;;;;;21.50;40.90;;;;;;484193;246;1263;-44
2022/11/27 07:56:29;;;;;;;;;;;21.40;40.90;;;;;;484228;246;2200;-45
2022/11/27 07:58:29;;;;;;;;;;;21.40;41.00;;;;;;484178;246;2021;-45
2022/11/27 08:00:31;;;;;;;;;;;21.40;41.00;;;;;;484224;246;1347;-44
2022/11/27 08:02:32;;;;;;;;;;;21.40;41.00;;;;;;484681;246;1243;-44
2022/11/27 08:04:33;;;;;;;;;;;21.40;40.90;;;;;;484678;246;1167;-44
2022/11/27 08:06:35;;;;;;;;;;;21.40;41.00;;;;;;484693;246;1116;-44
2022/11/27 08:08:36;;;;;;;;;;;21.40;41.00;;;;;;484488;246;1270;-44
2022/11/27 08:10:37;;;;;;;;;;;21.30;41.00;;;;;;484478;246;1241;-44
2022/11/27 08:12:39;;;;;;;;;;;21.30;41.00;;;;;;484551;246;1395;-44
2022/11/27 08:14:40;;;;;;;;;;;21.30;41.00;;;;;;484340;246;1250;-44
2022/11/27 08:16:41;;;;;;;;;;;21.30;41.00;;;;;;484635;246;2153;-44
2022/11/27 08:18:42;;;;;;;;;;;21.30;41.00;;;;;;484233;246;1248;-44
2022/11/27 08:20:44;;;;;;;;;;;21.30;41.10;;;;;;484258;246;1245;-44
2022/11/27 08:22:45;;;;;;;;;;;21.30;41.10;;;;;;484647;246;1271;-44
2022/11/27 08:24:47;;;;;;;;;;;21.30;41.20;;;;;;484436;246;1651;-44
2022/11/27 08:26:48;;;;;;;;;;;21.30;41.10;;;;;;484213;246;1299;-44
2022/11/27 08:28:50;;;;;;;;;;;21.30;41.20;;;;;;484335;246;1408;-44
2022/11/27 08:30:51;;;;;;;;;;;21.20;41.20;;;;;;484306;246;1282;-45
2022/11/27 08:32:52;;;;;;;;;;;21.20;41.20;;;;;;484534;246;1446;-44
2022/11/27 08:34:54;;;;;;;;;;;21.20;41.20;;;;;;484467;246;1195;-44
2022/11/27 08:36:55;;;;;;;;;;;21.20;41.30;;;;;;484137;246;2215;-44
2022/11/27 08:38:57;;;;;;;;;;;21.20;41.20;;;;;;484578;246;1335;-44
2022/11/27 08:40:58;;;;;;;;;;;21.20;41.20;;;;;;484587;246;1317;-44
2022/11/27 08:42:59;;;;;;;;;;;21.30;41.20;;;;;;484109;246;1705;-44
2022/11/27 08:45:01;;;;;;;;;;;21.30;41.20;;;;;;484214;246;1367;-44
2022/11/27 08:47:02;;;;;;;;;;;21.30;41.10;;;;;;484310;246;1459;-44
2022/11/27 08:49:03;;;;;;;;;;;21.30;41.10;;;;;;484386;246;1334;-44
2022/11/27 08:51:05;;;;;;;;;;;21.30;41.00;;;;;;484453;246;1322;-44
2022/11/27 08:53:06;;;;;;;;;;;21.30;41.10;;;;;;484195;246;1818;-45
2022/11/27 08:55:08;;;;;;;;;;;21.30;41.10;;;;;;484505;246;1336;-44
2022/11/27 08:57:09;;;;;;;;;;;21.30;41.10;;;;;;484516;246;2156;-45
2022/11/27 08:59:10;;;;;;;;;;;21.30;41.00;;;;;;484404;246;1224;-44
2022/11/27 09:01:12;;;;;;;;;;;21.30;41.00;;;;;;484188;246;1245;-44
2022/11/27 09:03:13;;;;;;;;;;;21.30;41.10;;;;;;484464;246;1210;-44
2022/11/27 09:05:14;;;;;;;;;;;21.30;41.00;;;;;;484160;246;1230;-44
2022/11/27 09:07:16;;;;;;;;;;;21.30;41.00;;;;;;484119;246;1763;-45
2022/11/27 09:09:17;;;;;;;;;;;21.30;41.00;;;;;;484230;246;1381;-44
2022/11/27 09:11:18;;;;;;;;;;;21.30;41.00;;;;;;484571;246;1424;-44
2022/11/27 09:13:19;;;;;;;;;;;21.30;41.00;;;;;;484140;246;1222;-44
2022/11/27 09:15:21;;;;;;;;;;;21.30;41.00;;;;;;484033;246;1220;-44
2022/11/27 09:17:22;;;;;;;;;;;21.30;41.00;;;;;;484319;246;2156;-44
2022/11/27 09:19:24;;;;;;;;;;;21.20;41.00;;;;;;484523;246;1663;-44
2022/11/27 09:21:26;;;;;;;;;;;21.30;41.10;;;;;;484133;246;1544;-44
2022/11/27 09:23:27;;;;;;;;;;;21.30;41.00;;;;;;484635;246;1798;-44
2022/11/27 09:25:29;;;;;;;;;;;21.20;41.10;;;;;;484149;246;1306;-44
2022/11/27 09:27:30;;;;;;;;;;;21.20;41.10;;;;;;484656;246;1243;-44
2022/11/27 09:29:31;;;;;;;;;;;21.20;41.10;;;;;;484158;246;1226;-44
2022/11/27 09:31:32;;;;;;;;;;;21.20;41.00;;;;;;484227;246;1128;-45
2022/11/27 09:33:34;;;;;;;;;;;21.30;41.10;;;;;;484172;246;1329;-44
2022/11/27 09:35:35;;;;;;;;;;;21.30;41.00;;;;;;484244;246;1250;-44
2022/11/27 09:37:36;;;;;;;;;;;21.40;40.90;;;;;;484384;246;2147;-44
2022/11/27 09:39:38;;;;;;;;;;;21.50;40.60;;;;;;484162;246;1236;-45
2022/11/27 09:41:39;;;;;;;;;;;21.70;40.20;;;;;;484620;246;1292;-45
2022/11/27 09:43:40;;;;;;;;;;;21.90;39.90;;;;;;484092;246;1271;-44
2022/11/27 09:45:42;;;;;;;;;;;22.00;39.70;;;;;;484174;246;1672;-45
2022/11/27 09:47:43;;;;;;;;;;;22.10;39.50;;;;;;484088;246;1263;-44
2022/11/27 09:49:44;;;;;;;;;;;22.20;39.30;;;;;;484514;246;1465;-44
2022/11/27 09:51:46;;;;;;;;;;;22.20;39.10;;;;;;484238;246;1401;-44
2022/11/27 09:53:47;;;;;;;;;;;22.20;39.00;;;;;;484252;246;1330;-44
2022/11/27 09:55:48;;;;;;;;;;;22.20;39.10;;;;;;484589;246;1264;-44
2022/11/27 09:57:50;;;;;;;;;;;22.10;39.30;;;;;;484186;246;2159;-45
2022/11/27 09:59:51;;;;;;;;;;;22.00;39.60;;;;;;484060;246;1282;-44
2022/11/27 10:01:52;;;;;;;;;;;21.80;39.80;;;;;;484584;246;1246;-44
2022/11/27 10:03:54;;;;;;;;;;;21.70;40.00;;;;;;484249;246;1230;-44
2022/11/27 10:05:55;;;;;;;;;;;21.70;40.20;;;;;;484267;246;1284;-44
2022/11/27 10:07:57;;;;;;;;;;;21.60;40.20;;;;;;484657;246;1399;-45
2022/11/27 10:09:58;;;;;;;;;;;21.50;40.30;;;;;;484636;246;1331;-45
2022/11/27 10:11:59;;;;;;;;;;;21.50;40.50;;;;;;484457;246;1305;-44
2022/11/27 10:14:01;;;;;;;;;;;21.40;40.60;;;;;;484301;246;1250;-44
2022/11/27 10:16:02;;;;;;;;;;;21.40;40.60;;;;;;484176;246;1224;-44
2022/11/27 10:18:03;;;;;;;;;;;21.40;40.60;;;;;;484521;246;2132;-45
2022/11/27 10:20:04;;;;;;;;;;;21.40;40.60;;;;;;484256;246;1216;-44
2022/11/27 10:22:06;;;;;;;;;;;21.40;40.60;;;;;;484193;243;1253;-44
2022/11/27 10:24:07;;;;;;;;;;;21.40;40.70;;;;;;484453;246;1261;-44
2022/11/27 10:26:08;;;;;;;;;;;21.30;40.70;;;;;;484138;246;1244;-44
2022/11/27 10:28:10;;;;;;;;;;;21.30;40.70;;;;;;484480;246;1243;-45
2022/11/27 10:30:11;;;;;;;;;;;21.30;40.70;;;;;;484356;242;1292;-44
2022/11/27 10:32:12;;;;;;;;;;;21.30;40.80;;;;;;484295;246;1463;-44
2022/11/27 10:34:14;;;;;;;;;;;21.30;40.90;;;;;;484230;246;1233;-44
2022/11/27 10:36:15;;;;;;;;;;;21.30;40.90;;;;;;484266;246;1278;-44
2022/11/27 10:38:16;;;;;;;;;;;21.30;40.80;;;;;;484122;246;2191;-45
2022/11/27 10:40:18;;;;;;;;;;;21.30;40.80;;;;;;484130;246;1257;-44
2022/11/27 10:42:19;;;;;;;;;;;21.30;40.90;;;;;;483977;246;1664;-44
2022/11/27 10:44:20;;;;;;;;;;;21.30;40.90;;;;;;484587;246;1810;-44
2022/11/27 10:46:22;;;;;;;;;;;21.30;40.90;;;;;;484138;246;1452;-45
2022/11/27 10:48:23;;;;;;;;;;;21.30;40.80;;;;;;484630;246;1264;-44
2022/11/27 10:50:24;;;;;;;;;;;21.20;40.80;;;;;;484568;246;1284;-44
2022/11/27 10:52:26;;;;;;;;;;;21.30;40.90;;;;;;483986;246;1674;-44
2022/11/27 10:54:27;;;;;;;;;;;21.30;40.80;;;;;;484338;246;1201;-44
2022/11/27 10:56:28;;;;;;;;;;;21.30;40.90;;;;;;484167;246;2350;-44
2022/11/27 10:58:30;;;;;;;;;;;21.30;40.90;;;;;;484584;246;1324;-44
2022/11/27 11:00:31;;;;;;;;;;;21.30;40.80;;;;;;484376;246;1281;-44
2022/11/27 11:02:32;;;;;;;;;;;21.20;40.90;;;;;;484157;246;1734;-44
2022/11/27 11:04:34;;;;;;;;;;;21.20;40.90;;;;;;484602;246;1573;-44
2022/11/27 11:06:35;;;;;;;;;;;21.20;40.90;;;;;;484271;246;1235;-44
2022/11/27 11:08:36;;;;;;;;;;;21.20;41.00;;;;;;484170;246;1412;-44
2022/11/27 11:10:38;;;;;;;;;;;21.20;41.00;;;;;;484394;246;1263;-44
2022/11/27 11:12:39;;;;;;;;;;;21.20;40.90;;;;;;484469;246;1281;-45
2022/11/27 11:14:40;;;;;;;;;;;21.20;40.90;;;;;;484451;246;1692;-44
2022/11/27 11:16:42;;;;;;;;;;;21.20;40.90;;;;;;484321;246;2172;-44
2022/11/27 11:18:43;;;;;;;;;;;21.20;40.90;;;;;;484601;246;1236;-44
2022/11/27 11:20:44;;;;;;;;;;;21.20;40.90;;;;;;484594;246;1249;-44
2022/11/27 11:22:46;;;;;;;;;;;21.20;40.90;;;;;;484575;246;1355;-44
2022/11/27 11:24:47;;;;;;;;;;;21.20;40.90;;;;;;484118;246;1352;-44
2022/11/27 11:26:48;;;;;;;;;;;21.20;40.90;;;;;;484070;246;1505;-44
2022/11/27 11:28:50;;;;;;;;;;;21.20;40.90;;;;;;484076;246;1454;-44
2022/11/27 11:30:51;;;;;;;;;;;21.20;41.00;;;;;;484084;246;1574;-44
2022/11/27 11:32:52;;;;;;;;;;;21.20;40.90;;;;;;484113;246;1284;-44
2022/11/27 11:34:54;;;;;;;;;;;21.20;40.90;;;;;;484257;246;1346;-44
2022/11/27 11:36:55;;;;;;;;;;;21.20;40.90;;;;;;484110;246;2153;-44
2022/11/27 11:38:56;;;;;;;;;;;21.20;40.90;;;;;;484242;246;1395;-44
2022/11/27 11:40:58;;;;;;;;;;;21.20;40.90;;;;;;484506;246;1377;-44
2022/11/27 11:42:59;;;;;;;;;;;21.20;40.90;;;;;;484152;246;1330;-45
2022/11/27 11:45:00;;;;;;;;;;;21.20;40.90;;;;;;484179;246;1241;-45
2022/11/27 11:47:02;;;;;;;;;;;21.20;41.00;;;;;;484172;246;1211;-44
2022/11/27 11:49:03;;;;;;;;;;;21.20;41.00;;;;;;484283;246;1442;-45
2022/11/27 11:51:04;;;;;;;;;;;21.20;41.00;;;;;;484240;246;1247;-44
2022/11/27 11:53:06;;;;;;;;;;;21.20;41.00;;;;;;484137;246;1396;-44
2022/11/27 11:55:07;;;;;;;;;;;21.20;40.90;;;;;;484238;246;1216;-44
2022/11/27 11:57:08;;;;;;;;;;;21.20;40.90;;;;;;484578;246;2203;-44